Time;durP1;ratioP1;P1;durP2;ratioP2;P2;SDS_P1;SDS_P2;PMS_P1;PMS_P2;Temp;Humidity;BMP_temperature;BMP_pressure;BME280_temperature;BME280_humidity;BME280_pressure;Samples;Min_cycle;Max_cycle;Signal;HPM_P1;HPM_P2
2023/10/12 00:01:24;;;;;;;1.77;1.67;;;;;;;;;;5047798;28;20287;-82
2023/10/12 00:04:05;;;;;;;3.60;2.30;;;;;;;;;;5071887;28;20209;-82
2023/10/12 00:06:37;;;;;;;4.17;1.40;;;;;;;;;;5063264;28;20213;-82
2023/10/12 00:09:16;;;;;;;4.27;2.10;;;;;;;;;;5070424;28;20207;-83
2023/10/12 00:11:54;;;;;;;8.80;2.17;;;;;;;;;;5072852;28;20205;-82
2023/10/12 00:14:22;;;;;;;3.00;2.00;;;;;;;;;;5060461;28;20204;-83
2023/10/12 00:16:50;;;;;;;1.97;1.73;;;;;;;;;;5072182;28;20684;-82
2023/10/12 00:19:20;;;;;;;1.80;1.70;;;;;;;;;;5072916;28;20201;-82
2023/10/12 00:21:47;;;;;;;1.67;1.57;;;;;;;;;;5072940;28;20284;-82
2023/10/12 00:24:18;;;;;;;3.20;2.40;;;;;;;;;;5073028;28;20212;-82
2023/10/12 00:26:45;;;;;;;2.50;2.10;;;;;;;;;;5072253;28;20600;-80
2023/10/12 00:29:12;;;;;;;3.90;2.23;;;;;;;;;;5072505;28;20247;-80
2023/10/12 00:31:42;;;;;;;2.90;2.10;;;;;;;;;;5072258;28;20280;-80
2023/10/12 00:34:10;;;;;;;3.90;2.30;;;;;;;;;;5072825;28;20201;-80
2023/10/12 00:36:40;;;;;;;1.80;1.70;;;;;;;;;;5071438;28;20209;-81
2023/10/12 00:39:10;;;;;;;3.37;1.90;;;;;;;;;;5072474;28;20205;-81
2023/10/12 00:41:39;;;;;;;4.13;1.90;;;;;;;;;;5072814;28;20287;-81
2023/10/12 00:44:11;;;;;;;2.47;2.10;;;;;;;;;;5072578;28;20216;-81
2023/10/12 00:46:58;;;;;;;2.97;2.20;;;;;;;;;;5072360;28;20703;-81
2023/10/12 00:49:27;;;;;;;5.53;1.90;;;;;;;;;;5072421;28;20307;-82
2023/10/12 00:52:07;;;;;;;3.83;2.20;;;;;;;;;;5072412;28;20228;-81
2023/10/12 00:54:43;;;;;;;2.63;2.20;;;;;;;;;;5071657;28;20546;-81
2023/10/12 00:57:10;;;;;;;3.10;2.40;;;;;;;;;;5072369;28;20205;-81
2023/10/12 00:59:38;;;;;;;5.03;1.93;;;;;;;;;;5072043;28;20640;-81
2023/10/12 01:02:09;;;;;;;4.77;2.57;;;;;;;;;;5071066;28;20605;-80
2023/10/12 01:04:36;;;;;;;3.63;1.87;;;;;;;;;;5072137;28;20197;-81
2023/10/12 01:07:06;;;;;;;4.97;2.20;;;;;;;;;;5071539;28;20751;-80
2023/10/12 01:09:42;;;;;;;2.17;1.90;;;;;;;;;;5071805;28;20197;-80
2023/10/12 01:12:13;;;;;;;3.83;2.23;;;;;;;;;;5071268;28;20208;-81
2023/10/12 01:14:43;;;;;;;4.30;1.73;;;;;;;;;;5071838;28;20212;-81
2023/10/12 01:17:16;;;;;;;3.33;2.33;;;;;;;;;;5071263;28;20193;-81
2023/10/12 01:19:46;;;;;;;2.20;2.00;;;;;;;;;;5071827;28;20212;-80
2023/10/12 01:22:14;;;;;;;4.67;2.80;;;;;;;;;;5070839;28;20225;-81
2023/10/12 01:24:57;;;;;;;3.67;2.27;;;;;;;;;;5071669;28;20209;-80
2023/10/12 01:27:25;;;;;;;3.37;2.00;;;;;;;;;;5048096;28;20197;-81
2023/10/12 01:29:52;;;;;;;2.93;1.97;;;;;;;;;;5070975;28;20243;-80
2023/10/12 01:32:27;;;;;;;2.80;2.17;;;;;;;;;;5071383;28;20225;-81
2023/10/12 01:34:55;;;;;;;2.90;1.90;;;;;;;;;;5070908;28;20255;-80
2023/10/12 01:37:25;;;;;;;2.30;2.10;;;;;;;;;;5071559;28;20201;-81
2023/10/12 01:40:11;;;;;;;3.27;1.90;;;;;;;;;;5071421;28;20216;-80
2023/10/12 01:42:49;;;;;;;4.07;1.90;;;;;;;;;;5071062;28;20201;-80
2023/10/12 01:45:18;;;;;;;4.73;2.17;;;;;;;;;;5071628;28;20219;-80
2023/10/12 01:47:50;;;;;;;3.73;1.73;;;;;;;;;;5070727;28;20197;-81
2023/10/12 01:50:17;;;;;;;10.00;2.67;;;;;;;;;;5071171;28;20263;-80
2023/10/12 01:52:47;;;;;;;7.80;2.50;;;;;;;;;;5070248;28;20221;-81
2023/10/12 01:55:22;;;;;;;3.23;2.20;;;;;;;;;;5071132;28;20240;-81
2023/10/12 01:57:53;;;;;;;3.37;1.90;;;;;;;;;;5057121;28;20250;-79
2023/10/12 02:00:25;;;;;;;8.63;2.20;;;;;;;;;;5070613;28;20201;-80
2023/10/12 02:03:00;;;;;;;3.40;2.13;;;;;;;;;;5070788;28;20216;-81
2023/10/12 02:05:29;;;;;;;3.80;2.07;;;;;;;;;;5070489;28;20253;-80
2023/10/12 02:08:04;;;;;;;2.53;2.33;;;;;;;;;;5071184;28;20219;-80
2023/10/12 02:10:41;;;;;;;2.23;2.03;;;;;;;;;;5070637;28;20211;-80
2023/10/12 02:13:10;;;;;;;2.13;1.90;;;;;;;;;;5071163;28;20243;-80
2023/10/12 02:15:37;;;;;;;3.80;1.83;;;;;;;;;;5071019;28;20767;-80
2023/10/12 02:18:10;;;;;;;2.90;2.67;;;;;;;;;;5070235;28;20295;-80
2023/10/12 02:20:42;;;;;;;3.90;3.60;;;;;;;;;;5069951;28;21016;-80
2023/10/12 02:23:13;;;;;;;2.03;1.87;;;;;;;;;;5070608;28;20208;-80
2023/10/12 02:25:50;;;;;;;2.57;2.20;;;;;;;;;;5054560;28;20297;-80
2023/10/12 02:28:22;;;;;;;2.40;2.20;;;;;;;;;;5062121;28;20255;-80
2023/10/12 02:30:53;;;;;;;2.60;1.67;;;;;;;;;;5060751;28;20201;-79
2023/10/12 02:33:24;;;;;;;3.33;2.30;;;;;;;;;;5060457;28;20230;-79
2023/10/12 02:35:51;;;;;;;3.07;2.20;;;;;;;;;;5063068;28;20193;-80
2023/10/12 02:38:21;;;;;;;2.30;2.10;;;;;;;;;;5064417;28;20206;-80
2023/10/12 02:40:57;;;;;;;3.73;1.90;;;;;;;;;;5050897;28;20198;-80
2023/10/12 02:43:27;;;;;;;3.90;2.30;;;;;;;;;;5051093;28;20208;-80
2023/10/12 02:45:54;;;;;;;4.77;2.30;;;;;;;;;;5051561;28;20218;-79
2023/10/12 02:48:23;;;;;;;2.20;2.00;;;;;;;;;;5057428;28;20204;-80
2023/10/12 02:50:58;;;;;;;2.93;2.57;;;;;;;;;;5056444;28;20202;-80
2023/10/12 02:53:29;;;;;;;2.40;2.10;;;;;;;;;;5054384;28;20226;-79
2023/10/12 02:55:59;;;;;;;2.80;2.00;;;;;;;;;;5063160;28;20216;-79
2023/10/12 02:58:27;;;;;;;4.93;2.50;;;;;;;;;;5064487;28;20211;-79
2023/10/12 03:00:57;;;;;;;4.00;2.57;;;;;;;;;;5063914;28;20600;-79
2023/10/12 03:03:27;;;;;;;2.53;2.03;;;;;;;;;;5060755;28;20687;-79
2023/10/12 03:05:58;;;;;;;3.40;2.60;;;;;;;;;;5066868;28;20610;-79
2023/10/12 03:08:30;;;;;;;2.50;2.30;;;;;;;;;;5070546;28;20679;-80
2023/10/12 03:11:15;;;;;;;3.43;2.10;;;;;;;;;;5067107;28;20197;-79
2023/10/12 03:13:54;;;;;;;5.33;2.50;;;;;;;;;;5068887;28;20224;-80
2023/10/12 03:16:22;;;;;;;3.37;2.23;;;;;;;;;;5052835;28;20216;-80
2023/10/12 03:18:57;;;;;;;3.07;2.60;;;;;;;;;;5069113;28;20198;-79
2023/10/12 03:21:27;;;;;;;7.87;2.23;;;;;;;;;;5071351;28;20204;-80
2023/10/12 03:23:57;;;;;;;5.47;2.07;;;;;;;;;;5069402;28;20185;-79
2023/10/12 03:26:25;;;;;;;3.33;2.77;;;;;;;;;;5071699;28;20205;-78
2023/10/12 03:28:53;;;;;;;2.87;2.20;;;;;;;;;;5070849;28;20220;-75
2023/10/12 03:31:23;;;;;;;2.07;1.93;;;;;;;;;;5071192;28;20213;-78
2023/10/12 03:33:54;;;;;;;7.00;2.23;;;;;;;;;;5048258;28;20227;-79
2023/10/12 03:36:26;;;;;;;2.30;2.10;;;;;;;;;;5071413;28;20205;-77
2023/10/12 03:39:25;;;;;;;2.00;1.90;;;;;;;;;;5059175;28;20300;-80
2023/10/12 03:42:10;;;;;;;3.40;2.43;;;;;;;;;;5069216;28;20198;-79
2023/10/12 03:44:48;;;;;;;2.63;2.43;;;;;;;;;;5053751;28;20202;-80
2023/10/12 03:47:17;;;;;;;2.30;2.10;;;;;;;;;;5058853;28;20704;-80
2023/10/12 03:49:57;;;;;;;2.33;2.13;;;;;;;;;;5068092;28;20765;-80
2023/10/12 03:52:28;;;;;;;15.83;4.13;;;;;;;;;;5053377;28;20293;-81
2023/10/12 03:55:16;;;;;;;8.43;2.50;;;;;;;;;;5062969;28;20276;-80
2023/10/12 03:57:46;;;;;;;4.47;1.90;;;;;;;;;;5053457;28;20206;-81
2023/10/12 04:00:32;;;;;;;2.67;2.37;;;;;;;;;;5053291;28;20212;-81
2023/10/12 04:03:04;;;;;;;3.80;2.50;;;;;;;;;;5053144;28;20198;-80
2023/10/12 04:05:47;;;;;;;2.33;2.10;;;;;;;;;;5052966;28;20209;-80
2023/10/12 04:11:46;;;;;;;2.10;1.90;;;;;;;;;;5054330;28;20584;-81
2023/10/12 04:14:22;;;;;;;2.47;2.00;;;;;;;;;;5057023;28;20224;-80
2023/10/12 04:17:09;;;;;;;2.50;2.23;;;;;;;;;;5072678;28;20212;-79
2023/10/12 04:19:36;;;;;;;2.40;2.20;;;;;;;;;;5052248;28;20232;-83
2023/10/12 04:22:16;;;;;;;2.57;2.20;;;;;;;;;;5072305;28;20251;-80
2023/10/12 04:24:45;;;;;;;3.63;3.03;;;;;;;;;;5053857;28;20291;-80
2023/10/12 04:30:28;;;;;;;4.17;2.70;;;;;;;;;;5072369;28;20284;-81
2023/10/12 04:33:11;;;;;;;4.87;2.30;;;;;;;;;;5050816;28;20299;-78
2023/10/12 04:36:09;;;;;;;3.23;2.63;;;;;;;;;;5046274;28;20200;-80
2023/10/12 04:38:46;;;;;;;3.83;2.23;;;;;;;;;;5070101;28;20209;-72
2023/10/12 04:41:25;;;;;;;3.13;2.20;;;;;;;;;;5071942;28;20695;-72
2023/10/12 04:44:06;;;;;;;4.57;2.37;;;;;;;;;;5057855;28;20205;-72
2023/10/12 04:46:47;;;;;;;3.30;2.53;;;;;;;;;;5068243;28;20687;-72
2023/10/12 04:52:06;;;;;;;3.43;2.17;;;;;;;;;;5070557;28;20273;-72
2023/10/12 04:54:36;;;;;;;2.83;2.37;;;;;;;;;;5058511;28;20289;-72
2023/10/12 04:57:13;;;;;;;2.07;1.87;;;;;;;;;;5070955;28;20204;-72
2023/10/12 04:59:50;;;;;;;2.47;2.27;;;;;;;;;;5071675;28;20288;-72
2023/10/12 05:02:28;;;;;;;3.37;2.10;;;;;;;;;;5071827;28;20254;-73
2023/10/12 05:07:53;;;;;;;3.37;2.30;;;;;;;;;;5071141;28;20691;-72
2023/10/12 05:10:26;;;;;;;4.03;2.43;;;;;;;;;;5071988;28;20197;-72
2023/10/12 05:12:57;;;;;;;4.50;2.50;;;;;;;;;;5071895;28;20202;-73
2023/10/12 05:15:27;;;;;;;2.97;2.10;;;;;;;;;;5071843;28;20324;-72
2023/10/12 05:17:54;;;;;;;4.80;3.13;;;;;;;;;;5071471;28;20613;-72
2023/10/12 05:20:23;;;;;;;3.73;2.67;;;;;;;;;;5071800;28;20197;-73
2023/10/12 05:22:50;;;;;;;5.57;2.53;;;;;;;;;;5070760;28;20197;-73
2023/10/12 05:25:17;;;;;;;2.63;2.43;;;;;;;;;;5071130;28;20201;-73
2023/10/12 05:28:04;;;;;;;6.63;4.10;;;;;;;;;;5071757;28;20223;-73
2023/10/12 05:30:32;;;;;;;7.03;6.00;;;;;;;;;;5070909;28;20255;-73
2023/10/12 05:33:04;;;;;;;11.67;6.60;;;;;;;;;;5071240;28;20667;-73
2023/10/12 05:35:49;;;;;;;6.77;5.93;;;;;;;;;;5071294;28;20600;-73
2023/10/12 05:38:17;;;;;;;5.93;4.07;;;;;;;;;;5070787;28;20200;-74
2023/10/12 05:40:55;;;;;;;3.80;3.47;;;;;;;;;;5071390;28;20684;-73
2023/10/12 05:43:22;;;;;;;5.93;3.60;;;;;;;;;;5070916;28;20594;-73
2023/10/12 05:45:51;;;;;;;6.77;3.63;;;;;;;;;;5071438;28;20205;-73
2023/10/12 05:48:19;;;;;;;9.73;4.03;;;;;;;;;;5070202;28;20201;-73
2023/10/12 05:50:49;;;;;;;3.80;3.13;;;;;;;;;;5071442;28;20233;-74
2023/10/12 05:53:17;;;;;;;8.67;3.00;;;;;;;;;;5045827;28;20279;-73
2023/10/12 05:55:47;;;;;;;10.27;3.23;;;;;;;;;;5070483;28;20288;-73
2023/10/12 05:58:15;;;;;;;9.47;2.80;;;;;;;;;;5071131;28;20637;-73
2023/10/12 06:00:44;;;;;;;4.30;2.93;;;;;;;;;;5070775;28;20258;-72
2023/10/12 06:03:16;;;;;;;3.27;2.83;;;;;;;;;;5070656;28;20204;-72
2023/10/12 06:05:44;;;;;;;2.90;2.50;;;;;;;;;;5070908;28;20245;-73
2023/10/12 06:08:12;;;;;;;2.37;2.13;;;;;;;;;;5061210;28;20209;-73
2023/10/12 06:10:41;;;;;;;4.83;2.67;;;;;;;;;;5067453;28;20208;-72
2023/10/12 06:13:09;;;;;;;3.33;2.07;;;;;;;;;;5070945;28;20235;-72
2023/10/12 06:15:40;;;;;;;2.00;1.90;;;;;;;;;;5056608;28;20228;-72
2023/10/12 06:18:10;;;;;;;2.33;2.13;;;;;;;;;;5070225;28;20205;-72
2023/10/12 06:20:42;;;;;;;2.00;1.77;;;;;;;;;;5070395;28;20648;-73
2023/10/12 06:23:13;;;;;;;2.77;1.83;;;;;;;;;;5070406;28;20578;-72
2023/10/12 06:25:43;;;;;;;5.37;2.33;;;;;;;;;;5070868;28;20219;-72
2023/10/12 06:28:17;;;;;;;2.53;1.70;;;;;;;;;;5069994;28;20204;-72
2023/10/12 06:30:44;;;;;;;3.90;2.23;;;;;;;;;;5070494;28;20212;-72
2023/10/12 06:33:14;;;;;;;4.50;2.03;;;;;;;;;;5070396;28;20205;-72
2023/10/12 06:35:58;;;;;;;3.90;1.70;;;;;;;;;;5069912;28;20231;-73
2023/10/12 06:38:38;;;;;;;5.33;2.10;;;;;;;;;;5070773;28;20583;-72
2023/10/12 06:43:58;;;;;;;4.27;2.13;;;;;;;;;;5070597;28;20207;-72
2023/10/12 06:46:27;;;;;;;2.80;1.60;;;;;;;;;;5070036;28;20300;-73
2023/10/12 06:49:00;;;;;;;2.40;2.13;;;;;;;;;;5069946;28;20777;-72
2023/10/12 06:51:30;;;;;;;1.77;1.67;;;;;;;;;;5069786;28;20297;-73
2023/10/12 06:54:17;;;;;;;2.17;1.67;;;;;;;;;;5070417;28;20225;-73
2023/10/12 06:56:50;;;;;;;6.87;2.60;;;;;;;;;;5048372;28;20228;-73
2023/10/12 06:59:27;;;;;;;5.80;1.70;;;;;;;;;;5070108;28;20242;-73
2023/10/12 07:01:57;;;;;;;2.20;1.70;;;;;;;;;;5070177;28;20661;-73
2023/10/12 07:04:36;;;;;;;5.87;1.63;;;;;;;;;;5070062;28;20212;-73
2023/10/12 07:07:07;;;;;;;1.97;1.77;;;;;;;;;;5070220;28;20208;-73
2023/10/12 07:09:42;;;;;;;2.10;1.90;;;;;;;;;;5070408;28;20298;-73
2023/10/12 07:12:10;;;;;;;3.23;1.67;;;;;;;;;;5069632;28;20211;-73
2023/10/12 07:14:39;;;;;;;1.77;1.67;;;;;;;;;;5070363;28;20235;-73
2023/10/12 07:17:07;;;;;;;3.73;2.10;;;;;;;;;;5069811;28;20225;-73
2023/10/12 07:19:35;;;;;;;2.33;1.40;;;;;;;;;;5070243;28;20209;-73
2023/10/12 07:22:07;;;;;;;2.47;1.90;;;;;;;;;;5069744;28;20280;-73
2023/10/12 07:24:38;;;;;;;2.10;1.90;;;;;;;;;;5069971;28;20216;-72
2023/10/12 07:27:11;;;;;;;4.00;1.70;;;;;;;;;;5069372;28;20201;-72
2023/10/12 07:29:39;;;;;;;2.30;1.83;;;;;;;;;;5069764;28;20216;-74
2023/10/12 07:32:18;;;;;;;3.77;2.10;;;;;;;;;;5043811;28;20205;-73
2023/10/12 07:34:54;;;;;;;3.43;2.17;;;;;;;;;;5069374;28;20718;-73
2023/10/12 07:37:20;;;;;;;2.57;1.60;;;;;;;;;;5069757;28;20569;-73
2023/10/12 07:39:50;;;;;;;2.50;1.60;;;;;;;;;;5069911;28;20197;-73
2023/10/12 07:42:25;;;;;;;4.23;2.23;;;;;;;;;;5069406;28;20198;-73
2023/10/12 07:44:54;;;;;;;1.80;1.70;;;;;;;;;;5069004;28;20203;-73
2023/10/12 07:47:31;;;;;;;1.70;1.60;;;;;;;;;;5072176;28;20209;-73
2023/10/12 07:50:07;;;;;;;1.73;1.63;;;;;;;;;;5046865;28;20282;-73
2023/10/12 07:52:46;;;;;;;2.70;1.70;;;;;;;;;;5072407;28;20205;-73
2023/10/12 07:55:17;;;;;;;2.73;1.93;;;;;;;;;;5073352;28;20217;-73
2023/10/12 07:57:44;;;;;;;3.17;1.50;;;;;;;;;;5073146;28;20633;-73
2023/10/12 08:05:56;;;;;;;3.13;1.80;;;;;;;;;;5068421;28;20211;-73
2023/10/12 08:08:37;;;;;;;2.63;1.90;;;;;;;;;;5072882;28;20760;-73
2023/10/12 08:11:27;;;;;;;4.00;1.90;;;;;;;;;;5072935;28;20693;-73
2023/10/12 08:13:56;;;;;;;3.53;1.93;;;;;;;;;;5073005;28;20197;-73
2023/10/12 08:16:29;;;;;;;1.83;1.73;;;;;;;;;;5072022;28;20239;-73
2023/10/12 08:21:43;;;;;;;5.77;2.17;;;;;;;;;;5072636;28;20682;-73
2023/10/12 08:24:22;;;;;;;2.10;1.90;;;;;;;;;;5073042;28;20197;-73
2023/10/12 08:26:57;;;;;;;2.30;2.10;;;;;;;;;;5072221;28;20216;-74
2023/10/12 08:32:12;;;;;;;7.83;2.63;;;;;;;;;;5072243;28;20203;-73
2023/10/12 08:37:27;;;;;;;8.33;3.10;;;;;;;;;;5072106;28;20216;-73
2023/10/12 08:40:07;;;;;;;14.07;4.33;;;;;;;;;;5072048;28;20228;-73
2023/10/12 08:42:55;;;;;;;7.03;3.30;;;;;;;;;;5072570;28;20193;-73
2023/10/12 08:45:23;;;;;;;13.73;3.87;;;;;;;;;;5050569;28;20208;-73
2023/10/12 08:47:53;;;;;;;7.17;3.60;;;;;;;;;;5071519;28;20201;-73
2023/10/12 08:53:05;;;;;;;5.87;3.30;;;;;;;;;;5072051;28;20591;-73
2023/10/12 08:55:32;;;;;;;6.23;3.50;;;;;;;;;;5071666;28;20707;-73
2023/10/12 08:58:12;;;;;;;6.93;3.47;;;;;;;;;;5070564;28;20197;-73
2023/10/12 09:00:43;;;;;;;9.00;3.20;;;;;;;;;;5071630;28;20205;-73
2023/10/12 09:03:24;;;;;;;4.30;3.20;;;;;;;;;;5071978;28;20201;-73
2023/10/12 09:05:52;;;;;;;17.67;3.33;;;;;;;;;;5072210;28;20288;-73
2023/10/12 09:11:14;;;;;;;5.37;2.80;;;;;;;;;;5069954;28;20205;-73
2023/10/12 09:13:47;;;;;;;2.80;2.47;;;;;;;;;;5071815;28;20638;-73
2023/10/12 09:16:17;;;;;;;4.03;2.50;;;;;;;;;;5072088;28;20220;-73
2023/10/12 09:18:46;;;;;;;4.27;2.30;;;;;;;;;;5071724;28;20233;-73
2023/10/12 09:24:06;;;;;;;3.97;2.57;;;;;;;;;;5071195;28;20580;-73
2023/10/12 09:26:38;;;;;;;6.13;2.63;;;;;;;;;;5071005;28;20205;-73
2023/10/12 09:29:20;;;;;;;4.50;2.73;;;;;;;;;;5071736;28;20197;-73
2023/10/12 09:35:02;;;;;;;3.43;2.20;;;;;;;;;;5071079;28;20640;-74
2023/10/12 09:37:33;;;;;;;3.50;1.80;;;;;;;;;;5053300;28;20197;-73
2023/10/12 09:40:00;;;;;;;2.47;2.27;;;;;;;;;;5070515;28;20631;-73
2023/10/12 09:42:31;;;;;;;3.50;2.20;;;;;;;;;;5070904;28;20205;-73
2023/10/12 09:45:05;;;;;;;2.17;1.90;;;;;;;;;;5070976;28;20295;-74
2023/10/12 09:47:50;;;;;;;2.47;1.80;;;;;;;;;;5071605;28;20611;-74
2023/10/12 09:50:27;;;;;;;3.63;1.67;;;;;;;;;;5071682;28;20699;-74
2023/10/12 09:52:58;;;;;;;2.90;1.80;;;;;;;;;;5070803;28;20216;-74
2023/10/12 09:55:32;;;;;;;2.20;1.83;;;;;;;;;;5070874;28;20260;-74
2023/10/12 09:58:12;;;;;;;4.97;1.77;;;;;;;;;;5070289;28;20567;-74
2023/10/12 10:01:01;;;;;;;3.60;2.40;;;;;;;;;;5070762;28;20197;-74
2023/10/12 10:03:35;;;;;;;3.70;2.10;;;;;;;;;;5070747;28;20204;-74
2023/10/12 10:06:10;;;;;;;3.10;1.70;;;;;;;;;;5070694;28;20579;-74
2023/10/12 10:08:45;;;;;;;4.20;1.80;;;;;;;;;;5070381;28;20197;-74
2023/10/12 10:11:12;;;;;;;3.17;2.03;;;;;;;;;;5071183;28;20223;-75
2023/10/12 10:13:47;;;;;;;2.83;2.10;;;;;;;;;;5070408;28;20208;-74
2023/10/12 10:16:17;;;;;;;2.23;1.70;;;;;;;;;;5070690;28;20483;-73
2023/10/12 10:18:46;;;;;;;2.07;1.50;;;;;;;;;;5070861;28;20645;-74
2023/10/12 10:21:15;;;;;;;2.30;2.10;;;;;;;;;;5070867;28;20201;-74
2023/10/12 10:23:48;;;;;;;2.10;1.60;;;;;;;;;;5070749;28;20702;-74
2023/10/12 10:26:20;;;;;;;3.27;1.50;;;;;;;;;;5070296;28;20295;-74
2023/10/12 10:28:54;;;;;;;6.13;1.87;;;;;;;;;;5070532;28;20200;-74
2023/10/12 10:31:33;;;;;;;4.03;2.10;;;;;;;;;;5070159;28;20258;-74
2023/10/12 10:34:04;;;;;;;2.03;1.87;;;;;;;;;;5071006;28;20215;-74
2023/10/12 10:36:34;;;;;;;2.33;1.80;;;;;;;;;;5070223;28;20278;-74
2023/10/12 10:39:08;;;;;;;2.63;1.90;;;;;;;;;;5070233;28;20193;-74
2023/10/12 10:41:54;;;;;;;3.80;2.07;;;;;;;;;;5070504;28;20202;-74
2023/10/12 10:44:22;;;;;;;5.57;2.03;;;;;;;;;;5070509;28;20208;-74
2023/10/12 10:46:54;;;;;;;5.50;2.00;;;;;;;;;;5070382;28;20205;-74
2023/10/12 10:49:24;;;;;;;2.60;1.93;;;;;;;;;;5070745;28;20229;-74
2023/10/12 10:52:02;;;;;;;4.40;2.27;;;;;;;;;;5070362;28;20693;-74
2023/10/12 10:54:30;;;;;;;2.03;1.83;;;;;;;;;;5070624;28;20231;-74
2023/10/12 10:56:58;;;;;;;3.37;2.10;;;;;;;;;;5070410;28;20316;-74
2023/10/12 10:59:25;;;;;;;3.93;2.00;;;;;;;;;;5056861;28;20208;-74
2023/10/12 11:01:53;;;;;;;4.07;2.17;;;;;;;;;;5070199;28;20197;-74
2023/10/12 11:04:46;;;;;;;1.97;1.80;;;;;;;;;;5069865;28;20209;-74
2023/10/12 11:07:15;;;;;;;5.70;2.27;;;;;;;;;;5069867;28;20219;-74
2023/10/12 11:12:31;;;;;;;2.40;1.90;;;;;;;;;;5069926;28;20220;-74
2023/10/12 11:14:58;;;;;;;4.07;2.57;;;;;;;;;;5070032;28;20205;-74
2023/10/12 11:17:30;;;;;;;3.00;2.13;;;;;;;;;;5069581;28;20625;-74
2023/10/12 11:19:57;;;;;;;3.47;2.63;;;;;;;;;;5069927;28;20211;-74
2023/10/12 11:22:24;;;;;;;6.03;2.53;;;;;;;;;;5072279;28;20284;-74
2023/10/12 11:24:53;;;;;;;6.10;1.80;;;;;;;;;;5073700;28;20675;-74
2023/10/12 11:27:31;;;;;;;8.73;2.93;;;;;;;;;;5073657;28;20208;-74
2023/10/12 11:30:00;;;;;;;3.00;2.23;;;;;;;;;;5073504;28;20240;-74
2023/10/12 11:32:30;;;;;;;2.83;2.07;;;;;;;;;;5073998;28;20205;-75
2023/10/12 11:34:59;;;;;;;3.40;2.30;;;;;;;;;;5070294;28;20289;-74
2023/10/12 11:37:27;;;;;;;3.23;2.27;;;;;;;;;;5064328;28;20287;-74
2023/10/12 11:39:55;;;;;;;2.90;1.83;;;;;;;;;;5073235;28;20197;-74
2023/10/12 11:42:22;;;;;;;2.83;1.77;;;;;;;;;;5073985;28;20288;-74
2023/10/12 11:44:51;;;;;;;2.90;2.17;;;;;;;;;;5073335;28;20205;-74
2023/10/12 11:47:38;;;;;;;1.67;1.57;;;;;;;;;;5073555;28;20209;-74
2023/10/12 11:50:09;;;;;;;3.37;1.77;;;;;;;;;;5048866;28;20229;-74
2023/10/12 11:52:37;;;;;;;3.70;2.07;;;;;;;;;;5073209;28;20259;-74
2023/10/12 11:55:07;;;;;;;3.07;1.80;;;;;;;;;;5073484;28;20687;-74
2023/10/12 11:57:34;;;;;;;4.67;2.53;;;;;;;;;;5072685;28;20244;-73
2023/10/12 12:00:07;;;;;;;2.80;1.90;;;;;;;;;;5073308;28;20197;-74
2023/10/12 12:02:36;;;;;;;6.73;2.40;;;;;;;;;;5073289;28;20201;-74
2023/10/12 12:05:02;;;;;;;2.70;2.07;;;;;;;;;;5073059;28;20201;-74
2023/10/12 12:07:29;;;;;;;7.77;2.00;;;;;;;;;;5072820;28;20201;-74
2023/10/12 12:10:01;;;;;;;2.30;2.10;;;;;;;;;;5073605;28;20201;-74
2023/10/12 12:12:27;;;;;;;4.50;2.37;;;;;;;;;;5072630;28;20213;-74
2023/10/12 12:14:54;;;;;;;2.73;2.30;;;;;;;;;;5073132;28;20622;-74
2023/10/12 12:17:21;;;;;;;3.17;1.77;;;;;;;;;;5072688;28;20221;-74
2023/10/12 12:19:49;;;;;;;3.07;2.03;;;;;;;;;;5072753;28;20201;-74
2023/10/12 12:22:16;;;;;;;4.90;2.23;;;;;;;;;;5072603;28;20684;-74
2023/10/12 12:24:44;;;;;;;2.73;1.90;;;;;;;;;;5073083;28;20593;-74
2023/10/12 12:27:37;;;;;;;3.13;2.20;;;;;;;;;;5072120;28;20197;-74
2023/10/12 12:30:06;;;;;;;1.80;1.60;;;;;;;;;;5071865;28;20197;-74
2023/10/12 12:32:33;;;;;;;7.57;2.00;;;;;;;;;;5073009;28;20589;-74
2023/10/12 12:35:02;;;;;;;5.47;3.17;;;;;;;;;;5073146;28;20212;-74
2023/10/12 12:37:29;;;;;;;4.40;2.30;;;;;;;;;;5072387;28;20274;-74
2023/10/12 12:40:27;;;;;;;2.37;1.90;;;;;;;;;;5059578;28;20200;-73
2023/10/12 12:42:44;;;;;;;2.37;2.10;;;;;;;;;;5071665;28;20284;-73
2023/10/12 12:45:11;;;;;;;2.87;1.80;;;;;;;;;;5072626;28;20641;-74
2023/10/12 12:47:38;;;;;;;6.43;2.27;;;;;;;;;;5071488;28;20209;-73
2023/10/12 12:50:08;;;;;;;5.57;2.10;;;;;;;;;;5071967;28;20213;-73
2023/10/12 12:52:37;;;;;;;2.87;2.00;;;;;;;;;;5071865;28;20684;-73
2023/10/12 12:55:10;;;;;;;2.43;1.80;;;;;;;;;;5072422;28;20225;-73
2023/10/12 12:57:38;;;;;;;3.10;2.23;;;;;;;;;;5070857;28;20224;-74
2023/10/12 13:00:08;;;;;;;3.80;1.83;;;;;;;;;;5072480;28;20288;-73
2023/10/12 13:02:36;;;;;;;3.93;1.90;;;;;;;;;;5072020;28;20294;-73
2023/10/12 13:05:04;;;;;;;2.80;1.60;;;;;;;;;;5071917;28;20205;-73
2023/10/12 13:07:32;;;;;;;2.53;1.80;;;;;;;;;;5071784;28;20193;-74
2023/10/12 13:10:00;;;;;;;3.83;1.93;;;;;;;;;;5071773;28;20212;-73
2023/10/12 13:12:31;;;;;;;4.13;1.90;;;;;;;;;;5071239;28;20741;-73
2023/10/12 13:15:00;;;;;;;1.97;1.83;;;;;;;;;;5072089;28;20205;-73
2023/10/12 13:17:29;;;;;;;3.20;1.83;;;;;;;;;;5071097;28;20644;-73
2023/10/12 13:19:58;;;;;;;2.80;2.03;;;;;;;;;;5072049;28;20197;-74
2023/10/12 13:22:25;;;;;;;3.43;2.20;;;;;;;;;;5046226;28;20654;-73
2023/10/12 13:24:56;;;;;;;8.97;2.30;;;;;;;;;;5071045;28;20303;-74
2023/10/12 13:27:27;;;;;;;5.80;2.40;;;;;;;;;;5059376;28;20596;-73
2023/10/12 13:29:57;;;;;;;2.33;1.77;;;;;;;;;;5072109;28;20207;-73
2023/10/12 13:32:26;;;;;;;2.57;1.77;;;;;;;;;;5071871;28;20205;-73
2023/10/12 13:34:57;;;;;;;4.90;2.47;;;;;;;;;;5071016;28;20234;-73
2023/10/12 13:37:30;;;;;;;4.43;2.30;;;;;;;;;;5071175;28;20239;-73
2023/10/12 13:39:58;;;;;;;2.33;1.70;;;;;;;;;;5071397;28;20258;-73
2023/10/12 13:42:28;;;;;;;2.43;2.20;;;;;;;;;;5071306;28;20204;-73
2023/10/12 13:44:56;;;;;;;4.07;2.10;;;;;;;;;;5069937;28;20675;-73
2023/10/12 13:47:25;;;;;;;3.83;2.10;;;;;;;;;;5058378;28;20206;-73
2023/10/12 13:49:53;;;;;;;2.87;2.00;;;;;;;;;;5070098;28;20244;-73
2023/10/12 13:52:20;;;;;;;5.20;2.10;;;;;;;;;;5071169;28;20255;-73
2023/10/12 13:54:47;;;;;;;4.63;2.07;;;;;;;;;;5070229;28;20638;-73
2023/10/12 13:57:16;;;;;;;2.60;1.80;;;;;;;;;;5070884;28;20224;-73
2023/10/12 13:59:45;;;;;;;3.17;1.93;;;;;;;;;;5044980;28;20208;-73
2023/10/12 14:02:12;;;;;;;6.03;2.50;;;;;;;;;;5070262;28;20258;-73
2023/10/12 14:04:40;;;;;;;8.90;2.57;;;;;;;;;;5071264;28;20197;-73
2023/10/12 14:07:07;;;;;;;3.47;2.20;;;;;;;;;;5070416;28;20200;-73
2023/10/12 14:09:34;;;;;;;6.10;3.30;;;;;;;;;;5070793;28;20205;-74
2023/10/12 14:12:01;;;;;;;2.60;1.90;;;;;;;;;;5069720;28;20201;-74
2023/10/12 14:14:29;;;;;;;5.90;1.87;;;;;;;;;;5057791;28;20287;-73
2023/10/12 14:16:57;;;;;;;2.60;1.80;;;;;;;;;;5066615;28;20723;-73
2023/10/12 14:19:24;;;;;;;8.87;2.20;;;;;;;;;;5067370;28;20615;-73
2023/10/12 14:21:52;;;;;;;2.20;1.83;;;;;;;;;;5067801;28;20691;-73
2023/10/12 14:24:23;;;;;;;2.93;2.17;;;;;;;;;;5064619;28;20208;-73
2023/10/12 14:26:50;;;;;;;4.90;2.87;;;;;;;;;;5063217;28;20197;-72
2023/10/12 14:29:18;;;;;;;3.63;1.80;;;;;;;;;;5069980;28;20573;-73
2023/10/12 14:31:47;;;;;;;2.77;2.10;;;;;;;;;;5065852;28;20228;-73
2023/10/12 14:34:16;;;;;;;6.53;2.47;;;;;;;;;;5061709;28;20676;-73
2023/10/12 14:36:44;;;;;;;5.10;2.20;;;;;;;;;;5069636;28;20225;-73
2023/10/12 14:39:22;;;;;;;4.37;2.47;;;;;;;;;;5056310;28;20201;-72
2023/10/12 14:41:49;;;;;;;3.40;2.17;;;;;;;;;;5052454;28;20211;-72
2023/10/12 14:44:16;;;;;;;3.03;2.07;;;;;;;;;;5052209;28;20233;-72
2023/10/12 14:46:44;;;;;;;3.27;2.30;;;;;;;;;;5053218;28;20210;-72
2023/10/12 14:49:14;;;;;;;4.60;2.13;;;;;;;;;;5057218;28;20236;-73
2023/10/12 14:51:42;;;;;;;5.63;3.23;;;;;;;;;;5050128;28;20292;-72
2023/10/12 14:54:09;;;;;;;3.50;2.00;;;;;;;;;;5050755;28;20210;-73
2023/10/12 14:56:36;;;;;;;3.47;2.30;;;;;;;;;;5051416;28;20225;-72
2023/10/12 14:59:03;;;;;;;5.50;2.67;;;;;;;;;;5055822;28;20212;-73
2023/10/12 15:01:29;;;;;;;4.03;2.60;;;;;;;;;;5055426;28;20213;-73
2023/10/12 15:03:56;;;;;;;3.17;2.90;;;;;;;;;;5056577;28;20197;-73
2023/10/12 15:06:24;;;;;;;5.97;2.77;;;;;;;;;;5055523;28;21057;-74
2023/10/12 15:08:52;;;;;;;9.57;3.50;;;;;;;;;;5057023;28;20675;-73
2023/10/12 15:11:19;;;;;;;3.90;2.50;;;;;;;;;;5064468;28;20633;-74
2023/10/12 15:13:48;;;;;;;3.77;2.23;;;;;;;;;;5071968;28;20563;-76
2023/10/12 15:16:16;;;;;;;3.63;2.33;;;;;;;;;;5072599;28;20208;-77
2023/10/12 15:18:42;;;;;;;7.60;3.90;;;;;;;;;;5072782;28;20694;-77
2023/10/12 15:21:11;;;;;;;4.53;3.00;;;;;;;;;;5072977;28;20204;-77
2023/10/12 15:23:40;;;;;;;3.47;2.70;;;;;;;;;;5059416;28;20672;-78
2023/10/12 15:26:07;;;;;;;8.33;3.50;;;;;;;;;;5072960;28;20583;-75
2023/10/12 15:28:35;;;;;;;6.87;4.33;;;;;;;;;;5072961;28;20219;-75
2023/10/12 15:31:06;;;;;;;4.33;2.77;;;;;;;;;;5074332;28;20664;-74
2023/10/12 15:33:33;;;;;;;2.87;2.57;;;;;;;;;;5047879;28;20259;-75
2023/10/12 15:35:59;;;;;;;4.17;2.27;;;;;;;;;;5072637;28;20205;-75
2023/10/12 15:38:30;;;;;;;16.33;11.47;;;;;;;;;;5073456;28;20228;-71
2023/10/12 15:41:00;;;;;;;9.23;5.70;;;;;;;;;;5073705;28;20235;-70
2023/10/12 15:43:27;;;;;;;7.90;3.70;;;;;;;;;;5073732;28;20285;-71
2023/10/12 15:45:57;;;;;;;4.03;2.80;;;;;;;;;;5073683;28;20254;-71
2023/10/12 15:48:26;;;;;;;3.13;2.80;;;;;;;;;;5072746;28;20205;-71
2023/10/12 15:50:53;;;;;;;4.03;2.30;;;;;;;;;;5072375;28;20201;-71
2023/10/12 15:53:21;;;;;;;2.80;2.50;;;;;;;;;;5072254;28;20216;-71